首页
METAR-TAF:

METAR-TAF

机场 :

格林维尔, 密西西比州, 美国

纬度: 33-28-58N, 经度: 090-59-08W, 海拔: 40米

当前天气观测

该预报发布于14分钟前的10:53 UTC
风速16节,风向南转西南
温度 17°C
湿度 94%
气压 1013 hPa
能見度: 16.1公里
散云层高于4200英尺
阴天层高于8500英尺
小雨

METAR: KGLH 251053Z AUTO 21016KT 10SM -RA SCT042 OVC085 17/16 A2990 RMK AO2 PK WND 23038/1024 WSHFT 1018 RAB27 SLP131 P0015 T01720161

时间: 05:07 (11:07 UTC)

预报

该预报发布于28分钟前的10:39 UTC
预报有效从25日的 11点(UTC)到 26日的 06点(UTC)
风速15节,风向西南,有时为25节阵风
能見度: 4.8公里
少量云层高于1300英尺
多云层高于3500英尺
阴天层高于4000英尺
大雨, 轻雾
从 25日的 1600点(UTC)
风速15节,风向西南,有时为24节阵风
能見度: 10公里
散云层高于2500英尺
多云层高于3000英尺
附近有阵雨
从 25日的 2100点(UTC)
风速12节,风向西转西南
能見度: 10公里
天空无云

TAF: KGLH 251039Z 2511/2606 23015G25KT 3SM +RA BR FEW013 BKN035 OVC040 FM251600 22015G24KT P6SM VCSH SCT025 BKN030 FM252100 25012KT P6SM SKC

超过4000个机场的气象观测和天气预报(METAR&TAF报告)。

可查询的气象台以黄色和红色小点在地图上表示。

将鼠标移到小点上方,可查看气象台名称。

然后点击查看天气观测和预报。

如需切换地图:点击带黑十字的绿色按钮放大地图;点击带横线的绿色按钮缩小地图;或者点击绿色箭头查看邻近地区的地图。


METAR-TAF: